Nearby METAR Reports

 

KDLZ - Delaware, Ohio, USA
Distance from station: SW 3mi, 5km
Updated: Sun, 08-Dec-2019 3:55pm EST
Mostly cloudy
Mostly cloudy
 Wind from SSE
Wind: SSE 10 mph , 17 km/h
Temperature: 48°F , 9°C
Wind Chill: 44°F , 7°C
Dew Point: 39°F , 4°C
Humidity: 71%
Barometer: 30.05 inHg , 1017.6 hPa
Clouds: Mostly cloudy
Visibility: 10 miles , 16 km
Cloud details: Mostly cloudy 6000 ft
2019/12/08 20:55 KDLZ 082055Z AUTO 16009KT 10SM BKN060 09/04 A3005 RMK AO2
KOSU - Columbus/St Univ, Ohio, USA
Distance from station: S 16mi, 25km
Updated: Sun, 08-Dec-2019 3:53pm EST
Overcast
Overcast
 Wind from SSE
Wind: SSE 9 mph , 15 km/h
Temperature: 48°F , 9°C
Wind Chill: 44°F , 7°C
Dew Point: 37°F , 3°C
Humidity: 66%
Barometer: 30.05 inHg , 1017.6 hPa
Clouds: Overcast
Visibility: 10 miles , 16 km
Cloud details: Overcast 6000 ft
2019/12/08 20:53 KOSU 082053Z 16008KT 10SM OVC060 09/03 A3005 RMK AO2 SLP182 T00940028 56016
 
KMRT - Marysville, Ohio, USA
Distance from station: WSW 16mi, 26km
Updated: Sun, 08-Dec-2019 3:55pm EST
Mostly cloudy
Mostly cloudy
 Wind from SSW
Wind: SSW 12 mph , 19 km/h
Temperature: 50°F , 10°C
Wind Chill: 45°F , 7°C
Dew Point: 41°F , 5°C
Humidity: 71%
Barometer: 30.04 inHg , 1017.3 hPa
Clouds: Mostly cloudy
Visibility: 10 miles , 16 km
Cloud details: Mostly cloudy 5000 ft
2019/12/08 20:55 KMRT 082055Z AUTO 21010KT 10SM BKN050 10/05 A3004 RMK AO2 T01000045
KMNN - Marion, Ohio, USA
Distance from station: N 21mi, 34km
Updated: Sun, 08-Dec-2019 3:53pm EST
Mostly cloudy
Mostly cloudy
 Wind from S
Wind: S 13 mph , 20 km/h
Temperature: 48°F , 9°C
Wind Chill: 43°F , 6°C
Dew Point: 37°F , 3°C
Humidity: 66%
Barometer: 30.03 inHg , 1016.9 hPa
Clouds: Mostly cloudy
Visibility: 10 miles , 16 km
Cloud details: Few Clouds 4100 ft
Mostly cloudy 5500 ft
2019/12/08 20:53 KMNN 082053Z AUTO 18011KT 10SM FEW041 BKN055 09/03 A3003 RMK AO2 SLP177 T00890033 55011
 
KCMH - Columbus, Ohio, USA
Distance from station: SSE 24mi, 38km
Updated: Sun, 08-Dec-2019 3:51pm EST
Overcast
Overcast
 Wind from S
Wind: S 10 mph , 17 km/h
Temperature: 52°F , 11°C
Dew Point: 37°F , 3°C
Humidity: 58%
Barometer: 30.06 inHg , 1017.9 hPa
Clouds: Overcast
Visibility: 10 miles , 16 km
Cloud details: Few Clouds 4500 ft
Overcast 6000 ft
2019/12/08 20:51 KCMH 082051Z 18009KT 10SM FEW045 OVC060 11/03 A3006 RMK AO2 SLP185 T01060028 56014
K4I3 - Mt Vernon/Knox, Ohio, USA
Distance from station: E 29mi, 46km
Updated: Sun, 08-Dec-2019 3:42pm EST
Overcast
Overcast
 Wind from S
Wind: S 7 mph , 11 km/h
Temperature: 48°F , 9°C
Wind Chill: 45°F , 7°C
Dew Point: 37°F , 3°C
Humidity: 66%
Barometer: 30.07 inHg , 1018.3 hPa
Clouds: Overcast
Visibility: 10 miles , 16 km
Cloud details: Overcast 5000 ft
2019/12/08 20:42 K4I3 082042Z AUTO 18006KT 10SM OVC050 09/03 A3007 RMK AO2
 
KTZR - Columbus/Bolton, Ohio, USA
Distance from station: S 29mi, 46km
Updated: Sun, 08-Dec-2019 3:47pm EST
Overcast
Overcast
 Wind from S
Wind: S 8 mph , 13 km/h
Temperature: 50°F , 10°C
Wind Chill: 47°F , 8°C
Dew Point: 39°F , 4°C
Humidity: 67%
Barometer: 30.06 inHg , 1017.9 hPa
Clouds: Overcast
Visibility: 10 miles , 16 km
Cloud details: Overcast 5500 ft
2019/12/08 20:47 KTZR 082047Z 17007KT 10SM OVC055 10/04 A3006
KUYF - London, Ohio, USA
Distance from station: SW 33mi, 54km
Updated: Sun, 08-Dec-2019 3:55pm EST
Overcast
Overcast
 Wind from S
Wind: S 12 mph , 19 km/h
Temperature: 50°F , 10°C
Wind Chill: 45°F , 7°C
Dew Point: 43°F , 6°C
Humidity: 76%
Barometer: 30.04 inHg , 1017.3 hPa
Clouds: Overcast
Visibility: 10 miles , 16 km
Cloud details: Partly cloudy 4500 ft
Overcast 5000 ft
2019/12/08 20:55 KUYF 082055Z AUTO 19010KT 10SM SCT045 OVC050 10/06 A3004 RMK AO2
 
KLCK - Rickenbacker Ang, Ohio, USA
Distance from station: SSE 35mi, 57km
Updated: Sun, 08-Dec-2019 3:55pm EST
Overcast
Overcast
 Wind from S
Wind: S 10 mph , 17 km/h
Temperature: 50°F , 10°C
Wind Chill: 46°F , 8°C
Dew Point: 37°F , 3°C
Humidity: 62%
Barometer: 30.07 inHg , 1018.3 hPa
Clouds: Overcast
Visibility: 10 miles , 16 km
Cloud details: Overcast 5500 ft
2019/12/08 20:55 KLCK 082055Z AUTO 18009KT 10SM OVC055 10/03 A3007 RMK AO2 T01040031
KVTA - Newark, Ohio, USA
Distance from station: ESE 38mi, 61km
Updated: Sun, 08-Dec-2019 3:54pm EST
Overcast
Overcast
 Wind from S
Wind: S 8 mph , 13 km/h
Temperature: 52°F , 11°C
Dew Point: 39°F , 4°C
Humidity: 62%
Barometer: 30.07 inHg , 1018.3 hPa
Clouds: Overcast
Visibility: 10 miles , 16 km
Cloud details: Overcast 6000 ft
2019/12/08 20:54 KVTA 082054Z AUTO 17007KT 10SM OVC060 11/04 A3007 RMK AO2 SLP188 T01110039 56013
 
KEDJ - Bellefontaine, Ohio, USA
Distance from station: W 39mi, 63km
Updated: Sun, 08-Dec-2019 3:40pm EST
Few Clouds
Few Clouds
 Wind from SSW
Wind: SSW 12 mph , 19 km/h, Gust: 20 mph , 31 km/h
Temperature: 48°F , 9°C
Wind Chill: 43°F , 6°C
Dew Point: 45°F , 7°C
Humidity: 87%
Barometer: 30.02 inHg , 1016.6 hPa
Clouds: Few Clouds
Visibility: 10 miles , 16 km
Cloud details: Few Clouds 4800 ft
2019/12/08 20:40 KEDJ 082040Z AUTO 20010G17KT 10SM FEW048 09/07 A3002 RMK AO1
KLHQ - Lancaster, Ohio, USA
Distance from station: SSE 44mi, 71km
Updated: Sun, 08-Dec-2019 3:53pm EST
Overcast
Overcast
 Wind from SSE
Wind: SSE 9 mph , 15 km/h
Temperature: 52°F , 11°C
Dew Point: 37°F , 3°C
Humidity: 58%
Barometer: 30.08 inHg , 1018.6 hPa
Clouds: Overcast
Visibility: 10 miles , 16 km
Cloud details: Overcast 5500 ft
2019/12/08 20:53 KLHQ 082053Z AUTO 16008KT 10SM OVC055 11/03 A3008 RMK AO2 SLP192 T01110033 55015
 
KMFD - Mansfield, Ohio, USA
Distance from station: NE 46mi, 73km
Updated: Sun, 08-Dec-2019 3:52pm EST
Mostly cloudy
Mostly cloudy
 Wind from S
Wind: S 16 mph , 26 km/h
Temperature: 48°F , 9°C
Wind Chill: 42°F , 6°C
Dew Point: 39°F , 4°C
Humidity: 71%
Barometer: 30.03 inHg , 1016.9 hPa
Clouds: Mostly cloudy
Visibility: 10 miles , 16 km
Cloud details: Mostly cloudy 5000 ft
2019/12/08 20:52 KMFD 082052Z 18014KT 10SM BKN050 09/04 A3003 RMK AO2 SLP177 T00940039 55010
KSGH - Springfield Muni, Ohio, USA
Distance from station: SW 52mi, 84km
Updated: Sun, 08-Dec-2019 3:56pm EST
Overcast
Overcast
 Wind from SSW
Wind: SSW 9 mph , 15 km/h
Temperature: 52°F , 11°C
Dew Point: 43°F , 6°C
Humidity: 72%
Barometer: 30.04 inHg , 1017.3 hPa
Clouds: Overcast
Visibility: 10 miles , 16 km
Cloud details: Overcast 5500 ft
2019/12/08 20:56 KSGH 082056Z AUTO 20008KT 10SM OVC055 11/06 A3004 RMK AO2 SLP181 T01060056 55013
 
KI23 - Washington Court, Ohio, USA
Distance from station: SSW 55mi, 88km
Updated: Sun, 08-Dec-2019 3:55pm EST
Mostly cloudy
Mostly cloudy
 Wind from SSW
Wind: SSW 10 mph , 17 km/h
Temperature: 52°F , 11°C
Dew Point: 39°F , 4°C
Humidity: 62%
Barometer: 30.05 inHg , 1017.6 hPa
Clouds: Mostly cloudy
Visibility: 10 miles , 16 km
Cloud details: Mostly cloudy 6000 ft
2019/12/08 20:55 KI23 082055Z AUTO 20009KT 10SM BKN060 11/04 A3005 RMK AO1
KAOH - Lima, Ohio, USA
Distance from station: WNW 56mi, 91km
Updated: Sun, 08-Dec-2019 3:53pm EST
Mostly cloudy
Mostly cloudy
 Wind from SSW
Wind: SSW 13 mph , 20 km/h, Gust: 23 mph , 37 km/h
Temperature: 50°F , 10°C
Wind Chill: 45°F , 7°C
Dew Point: 39°F , 4°C
Humidity: 67%
Barometer: 29.99 inHg , 1015.6 hPa
Clouds: Mostly cloudy
Visibility: 10 miles , 16 km
Cloud details: Mostly cloudy 2800 ft
2019/12/08 20:53 KAOH 082053Z AUTO 20011G20KT 10SM BKN028 10/04 A2999 RMK AO2 SLP160 T01000044 55013
 
KFDY - Findlay, Ohio, USA
Distance from station: NNW 58mi, 93km
Updated: Sun, 08-Dec-2019 3:53pm EST
Overcast
Overcast
 Wind from S
Wind: S 14 mph , 22 km/h
Temperature: 52°F , 11°C
Dew Point: 41°F , 5°C
Humidity: 67%
Barometer: 29.98 inHg , 1015.2 hPa
Clouds: Overcast
Visibility: 10 miles , 16 km
Cloud details: Overcast 2900 ft
2019/12/08 20:53 KFDY 082053Z AUTO 19012KT 10SM OVC029 11/05 A2998 RMK AO2 SLP152 T01060050 56013
KFFO - Wright Paterson, Ohio, USA
Distance from station: SW 61mi, 98km
Updated: Sun, 08-Dec-2019 3:56pm EST
Overcast
Overcast
 Wind from S
Wind: S 12 mph , 19 km/h
Temperature: 52°F , 11°C
Dew Point: 39°F , 4°C
Humidity: 62%
Barometer: 30.03 inHg , 1016.9 hPa
Clouds: Overcast
Visibility: 10 miles , 16 km
Cloud details: Overcast 5500 ft
2019/12/08 20:56 KFFO 082056Z AUTO 19010KT 10SM OVC055 11/04 A3003 RMK AO2 SLP178 T01140044 56018
 
KRZT - Chillicothe, Ohio, USA
Distance from station: S 61mi, 98km
Updated: Sun, 08-Dec-2019 3:55pm EST
Overcast
Overcast
 Wind from SSE
Wind: SSE 7 mph , 11 km/h
Temperature: 52°F , 11°C
Dew Point: 36°F , 2°C
Humidity: 54%
Barometer: 30.08 inHg , 1018.6 hPa
Clouds: Overcast
Visibility: 10 miles , 16 km
Cloud details: Overcast 6500 ft
2019/12/08 20:55 KRZT 082055Z AUTO 16006KT 10SM OVC065 11/02 A3008 RMK AO2
KI19 - Dayton-Jackson, Ohio, USA
Distance from station: SW 65mi, 105km
Updated: Sun, 08-Dec-2019 3:35pm EST
Overcast
Overcast
 Wind from SSW
Wind: SSW 8 mph , 13 km/h
Temperature: 54°F , 12°C
Dew Point: 39°F , 4°C
Humidity: 58%
Barometer: 30.06 inHg , 1017.9 hPa
Clouds: Overcast
Visibility: 10 miles , 16 km
Cloud details: Partly cloudy 4800 ft
Overcast 6000 ft
2019/12/08 20:35 KI19 082035Z AUTO 21007KT 10SM SCT048 OVC060 12/04 A3006 RMK AO2 T01150040